Weather observations for the past three days for
Portage, Portage Glacier
Metric (Imperial)
Date Time (akdt) Wind (kph) Vis. (km) Weather Sky Cond. Temperature (ºC) Relative Humidity Wind Chill (°C) Heat Index (°C) Pressure Precipitation (cm)
Air Dwpt 6 hour altimeter (cm) sea level (mb) 1 hr 3 hr 6 hr
Max. Min.
03 16:53 Vrbl 9 16.09 Fair CLR 18.9 2.8 34% 76.5 1020.1
03 15:53 Vrbl 11 G 31 16.09 Fair CLR 18.3 2.2 18.9 7.2 34% 76.5 1019.8
03 14:53 Calm 16.09 Fair CLR 18.3 2.8 36% 76.48 1019.7
03 13:53 Vrbl 9 16.09 Fair CLR 17.2 3.3 40% 76.48 1019.5
03 12:53 E 9 16.09 Fair CLR 12.8 3.9 55% 76.5 1020.0
03 11:53 E 6 16.09 Fair CLR 11.7 3.3 57% 76.5 1019.8
03 10:53 Calm 16.09 Fair CLR 10 5 71% 76.5 1020.0
03 09:53 Calm 16.09 Fair CLR 7.2 4.4 7.8 0.6 83% 76.5 1020.1
03 08:53 Calm 16.09 Fair CLR 5.6 4.4 92% 76.48 1019.6
03 07:53 Calm 16.09 Fair CLR 3.9 3.3 96% 76.48 1019.5
03 06:53 Calm 16.09 Fair CLR 2.2 1.7 97% 76.45 1019.4
03 05:53 Calm 16.09 Fair CLR 0.6 0 96% 76.45 1019.1
03 04:53 Calm 16.09 Fair CLR 1.1 0 92% 76.45 1019.1
03 03:53 Calm 16.09 Fair CLR 2.8 1.7 10.6 1.7 93% 76.4 1018.4
03 02:53 Calm 16.09 Fair CLR 2.2 1.1 93% 76.35 1018.0
03 01:53 Calm 16.09 Fair CLR 3.9 2.8 93% 76.33 1017.6
03 00:53 Calm 16.09 Fair CLR 4.4 3.3 93% 76.3 1017.2
02 23:53 SE 6 16.09 Fair CLR 5.6 3.9 89% 76.25 1016.6
02 22:53 Calm 16.09 Fair CLR 8.3 4.4 77% 76.2 1016.0
02 21:53 W 6 16.09 Fair CLR 10.6 5 17.8 10.6 69% 76.12 1015.0
02 20:53 Vrbl 7 16.09 Fair CLR 11.7 4.4 61% 76.07 1014.3
02 19:53 Vrbl 11 16.09 Fair CLR 13.9 2.8 47% 76.05 1013.8
02 18:53 W 13 16.09 Fair CLR 14.4 1.7 42% 76 1013.1
02 17:53 Vrbl 9 16.09 Fair CLR 16.1 1.7 38% 75.95 1012.6
02 16:53 SW 15 G 33 16.09 Fair CLR 17.2 0.6 33% 75.92 1012.0
02 15:53 Vrbl 11 16.09 Fair CLR 18.3 1.1 18.3 7.8 32% 75.87 1011.3
02 14:53 W 11 16.09 Fair CLR 18.3 2.8 36% 75.82 1010.9
02 13:53 W 13 G 30 16.09 Fair CLR 16.7 2.8 40% 75.77 1010.3
02 12:53 W 13 16.09 Fair CLR 15 3.9 48% 75.77 1010.2
02 11:53 Vrbl 11 16.09 Fair CLR 13.3 5.6 60% 75.74 1009.8
02 10:53 W 15 16.09 Fair CLR 11.1 5 66% 75.72 1009.5
02 09:53 Vrbl 9 16.09 Fair CLR 7.8 4.4 7.8 -0.6 79% 6 75.67 1008.8
02 08:53 Calm 9.66 Fog/Mist SCT002 1.7 1.7 100% 75.64 1008.6
02 07:53 Calm 16.09 A Few Clouds FEW003 0 -0.6 96% 75.64 1008.3
02 06:53 Calm 16.09 Mostly Cloudy BKN002 -0.6 -1.1 96% 75.62 1008.2
02 05:53 Calm 16.09 Partly Cloudy SCT004 -0.6 -1.1 96% 75.59 1007.8
02 04:53 Calm 16.09 Fair CLR 0 -0.6 96% 75.54 1007.2
02 03:53 Calm 16.09 Fair CLR 1.1 0.6 8.3 1.1 97% 75.54 1007.1
02 02:53 Calm 16.09 Fair CLR 1.1 1.1 100% 75.54 1007.1
02 01:53 Calm 16.09 Fair CLR 1.7 1.1 96% 75.51 1006.9
02 00:53 Calm 16.09 Fair CLR 3.9 2.8 93% 75.51 1006.6
01 23:53 Calm 16.09 Fair CLR 4.4 3.3 93% 75.49 1006.4
01 22:53 W 6 16.09 Fair CLR 8.3 3.9 74% 75.46 1006.0
01 21:53 W 6 16.09 Fair CLR 8.3 4.4 15 7.2 77% 75.44 1005.8
01 20:53 Calm 16.09 Fair CLR 9.4 5 74% 75.44 1005.6
01 19:53 Vrbl 7 16.09 Fair CLR 11.1 4.4 64% 75.44 1005.7
01 18:53 Vrbl 7 16.09 Fair CLR 12.2 5 62% 75.41 1005.4
01 17:53 Vrbl 9 16.09 Fair CLR 13.3 5 57% 75.44 1005.5
01 16:53 W 15 G 30 16.09 Fair CLR 13.9 4.4 53% 75.44 1005.6
01 15:53 W 13 16.09 Fair CLR 14.4 3.9 15 8.9 50% 75.41 1005.5
01 14:53 W 13 16.09 Fair CLR 13.9 3.3 49% 75.44 1005.7
01 13:53 W 15 16.09 Fair CLR 13.3 2.8 49% 75.46 1006.1
01 12:53 Vrbl 11 16.09 Fair CLR 12.8 3.3 53% 75.49 1006.4
01 11:53 Vrbl 11 16.09 Fair CLR 11.1 2.8 57% 75.51 1006.6
01 10:53 W 13 16.09 Fair CLR 10 3.3 63% 8 75.51 1006.8
01 09:53 W 9 16.09 Fair CLR 8.9 3.3 8.9 3.9 68% 8 75.54 1007.0
01 08:53 Vrbl 6 16.09 Fair CLR 6.7 2.8 76% 75.54 1007.2
01 07:53 W 6 16.09 Fair CLR 5.6 2.2 79% 75.54 1007.1
01 06:53 W 6 16.09 Fair CLR 5 2.8 86% 75.54 1007.0
01 05:53 Vrbl 7 16.09 Fair CLR 6.1 2.8 80% 5 75.51 1006.6
01 04:53 Vrbl 7 16.09 Fair CLR 6.1 3.3 82% 5 75.44 1005.8
01 03:53 NW 7 16.09 Fair CLR 6.1 3.3 10 6.1 82% 5 75.39 1005.1
01 02:53 W 9 16.09 Fair CLR 7.2 3.9 80% 6 75.36 1004.7
01 01:53 Vrbl 7 16.09 Fair CLR 7.8 3.3 73% 7 75.34 1004.2
01 00:53 W 7 16.09 Fair CLR 7.8 3.3 73% 7 75.29 1003.8
31 23:53 Vrbl 6 16.09 Fair CLR 7.2 3.3 77% 75.26 1003.3
31 22:53 Vrbl 7 16.09 Fair CLR 7.2 3.9 80% 6 75.21 1002.8
31 21:53 Vrbl 6 16.09 A Few Clouds FEW065 10 2.8 12.8 9.4 61% 75.16 1001.9
31 20:53 Vrbl 6 16.09 A Few Clouds FEW060 11.7 2.8 55% 75.11 1001.4
31 19:53 Vrbl 11 16.09 Mostly Cloudy BKN060 12.2 3.3 55% 75.08 1000.9
31 18:53 Vrbl 7 16.09 Mostly Cloudy BKN060 12.8 3.3 53% 75.03 1000.2
31 17:53 W 13 G 33 16.09 Partly Cloudy SCT050 12.8 2.8 51% 74.96 999.2
Date Time (akdt) Wind (kph) Vis. (km) Weather Sky Cond. Air Dwpt Max. Min. Relative Humidity Wind Chill (°C) Heat Index (°C) altimeter (cm) sea level (mb) 1 hr 3 hr 6 hr
6 hour
Temperature (ºC) Pressure Precipitation (cm)